Terminal Aerodrome Forecast
Issued by NWS

Home | Current Version | Previous Version | Text Only | Print | Product List | Glossary On
Versions: 1 2 3 4 5 6 7 8 9 10 11 12 13 14
000
FTUS41 KPHI 282340
TAFMIV
TAF
KMIV 282340Z 0100/0124 VRB02KT P6SM BKN250
     FM011000 00000KT P6SM OVC120
     FM011600 16003KT P6SM OVC050
      TEMPO 0117/0118 6SM -SN OVC035
     FM011900 16006KT 3SM -FZRA BR OVC005=

USA.gov is the U.S. government's official web portal to all federal, state and local government web resources and services.